createdAt,value
2022-10-25T00:02:19.931Z,98781.50
2022-10-25T00:04:49.432Z,98782.03
2022-10-25T00:07:18.278Z,98783.63
2022-10-25T00:09:47.017Z,98800.22
2022-10-25T00:12:15.661Z,98795.00
2022-10-25T00:14:45.899Z,98795.19
2022-10-25T00:17:15.721Z,98795.81
2022-10-25T00:19:44.351Z,98796.31
2022-10-25T00:22:12.956Z,98790.47
2022-10-25T00:24:41.583Z,98797.13
2022-10-25T00:27:10.389Z,98803.81
2022-10-25T00:29:39.256Z,98802.16
2022-10-25T00:32:09.661Z,98801.59
2022-10-25T00:34:41.179Z,98799.44
2022-10-25T00:37:10.022Z,98799.34
2022-10-25T00:39:38.922Z,98797.78
2022-10-25T00:42:09.433Z,98799.59
2022-10-25T00:44:57.910Z,98793.25
2022-10-25T00:47:49.753Z,98802.41
2022-10-25T00:50:34.517Z,98801.53
2022-10-25T00:53:12.174Z,98806.97
2022-10-25T00:55:47.845Z,98807.69
2022-10-25T00:58:23.255Z,98810.47
2022-10-25T01:00:52.245Z,98805.59
2022-10-25T01:03:25.230Z,98801.69
2022-10-25T01:05:55.309Z,98799.25
2022-10-25T01:08:25.653Z,98793.38
2022-10-25T01:10:54.426Z,98790.66
2022-10-25T01:13:23.492Z,98790.06
2022-10-25T01:16:12.382Z,98789.69
2022-10-25T01:18:56.368Z,98790.25
2022-10-25T01:21:48.857Z,98786.75
2022-10-25T01:25:10.330Z,98785.69
2022-10-25T01:28:08.024Z,98778.78
2022-10-25T01:31:18.746Z,98783.00
2022-10-25T01:33:58.347Z,98779.97
2022-10-25T01:36:42.844Z,98785.75
2022-10-25T01:39:16.924Z,98782.91
2022-10-25T01:41:58.303Z,98782.03
2022-10-25T01:44:40.973Z,98791.13
2022-10-25T01:47:18.910Z,98789.50
2022-10-25T01:49:55.696Z,98795.34
2022-10-25T01:52:26.205Z,98798.59
2022-10-25T01:54:55.450Z,98797.00
2022-10-25T01:57:46.395Z,98788.34
2022-10-25T02:00:19.268Z,98791.28
2022-10-25T02:03:03.682Z,98797.97
2022-10-25T02:05:45.439Z,98794.47
2022-10-25T02:08:29.154Z,98793.22
2022-10-25T02:11:07.883Z,98802.63
2022-10-25T02:13:53.307Z,98788.69
2022-10-25T02:16:27.627Z,98791.91
2022-10-25T02:19:02.799Z,98795.00
2022-10-25T02:21:35.972Z,98795.09
2022-10-25T02:24:12.373Z,98797.44
2022-10-25T02:26:43.812Z,98789.66
2022-10-25T02:29:15.746Z,98800.84
2022-10-25T02:31:45.180Z,98793.13
2022-10-25T02:34:15.415Z,98796.31
2022-10-25T02:36:44.173Z,98796.63
2022-10-25T02:39:12.905Z,98786.72
2022-10-25T02:41:41.611Z,98792.56
2022-10-25T02:44:10.300Z,98790.03
2022-10-25T02:46:39.056Z,98787.38
2022-10-25T02:49:07.711Z,98789.09
2022-10-25T02:51:38.839Z,98797.03
2022-10-25T02:54:07.818Z,98783.63
2022-10-25T02:56:36.620Z,98790.59
2022-10-25T02:59:05.515Z,98786.78
2022-10-25T03:01:34.404Z,98792.06
2022-10-25T03:04:03.196Z,98788.91
2022-10-25T03:06:31.972Z,98793.78
2022-10-25T03:09:02.127Z,98800.16
2022-10-25T03:11:30.967Z,98801.38
2022-10-25T03:13:59.621Z,98804.88
2022-10-25T03:16:28.318Z,98801.38
2022-10-25T03:18:59.549Z,98810.63
2022-10-25T03:21:28.308Z,98806.63
2022-10-25T03:23:56.993Z,98805.25
2022-10-25T03:26:27.184Z,98816.53
2022-10-25T03:28:56.987Z,98812.16
2022-10-25T03:31:25.802Z,98817.50
2022-10-25T03:33:54.635Z,98818.00
2022-10-25T03:36:23.296Z,98822.84
2022-10-25T03:38:52.148Z,98816.84
2022-10-25T03:41:20.897Z,98821.13
2022-10-25T03:43:50.987Z,98815.53
2022-10-25T03:46:19.803Z,98815.53
2022-10-25T03:48:48.515Z,98820.19
2022-10-25T03:51:17.335Z,98829.16
2022-10-25T03:53:47.308Z,98829.53
2022-10-25T03:56:16.284Z,98831.28
2022-10-25T03:58:45.090Z,98830.56
2022-10-25T04:01:15.440Z,98833.56
2022-10-25T04:03:45.660Z,98829.84
2022-10-25T04:06:43.383Z,98838.94
2022-10-25T04:09:12.103Z,98844.28
2022-10-25T04:11:40.751Z,98839.75
2022-10-25T04:14:09.516Z,98840.56
2022-10-25T04:16:39.669Z,98842.19
2022-10-25T04:19:08.378Z,98842.53
2022-10-25T04:21:37.248Z,98850.56
2022-10-25T04:24:06.538Z,98848.22
2022-10-25T04:26:37.833Z,98842.97
2022-10-25T04:29:07.711Z,98841.41
2022-10-25T04:31:38.176Z,98842.56
2022-10-25T04:34:06.930Z,98842.56
2022-10-25T04:36:35.788Z,98848.25
2022-10-25T04:39:04.562Z,98847.22
2022-10-25T04:41:35.101Z,98854.25
2022-10-25T04:44:05.213Z,98845.16
2022-10-25T04:46:34.132Z,98843.63
2022-10-25T04:49:05.402Z,98842.31
2022-10-25T04:51:35.514Z,98843.72
2022-10-25T04:54:08.064Z,98853.84
2022-10-25T04:56:40.003Z,98849.91
2022-10-25T04:59:16.125Z,98848.59
2022-10-25T05:01:45.211Z,98845.34
2022-10-25T05:04:15.443Z,98847.78
2022-10-25T05:06:44.129Z,98849.16
2022-10-25T05:09:12.809Z,98855.13
2022-10-25T05:11:41.665Z,98857.78
2022-10-25T05:14:15.629Z,98855.13
2022-10-25T05:16:44.418Z,98850.22
2022-10-25T05:19:14.647Z,98853.38
2022-10-25T05:21:43.416Z,98860.28
2022-10-25T05:24:12.164Z,98852.34
2022-10-25T05:26:41.172Z,98861.44
2022-10-25T05:29:13.821Z,98863.88
2022-10-25T05:31:43.505Z,98868.41
2022-10-25T05:34:12.502Z,98873.78
2022-10-25T05:36:42.621Z,98873.22
2022-10-25T05:39:11.480Z,98871.09
2022-10-25T05:41:40.172Z,98880.75
2022-10-25T05:44:09.230Z,98872.16
2022-10-25T05:46:38.174Z,98880.75
2022-10-25T05:49:06.863Z,98888.22
2022-10-25T05:51:53.414Z,98890.41
2022-10-25T05:54:23.588Z,98892.28
2022-10-25T05:56:57.185Z,98887.72
2022-10-25T05:59:31.212Z,98891.22
2022-10-25T06:02:01.345Z,98900.44
2022-10-25T06:04:31.089Z,98906.59
2022-10-25T06:07:03.024Z,98909.84
2022-10-25T06:09:33.283Z,98912.19
2022-10-25T06:12:06.182Z,98916.00
2022-10-25T06:14:38.736Z,98923.84
2022-10-25T06:17:07.761Z,98929.31
2022-10-25T06:19:37.551Z,98928.69
2022-10-25T06:22:08.241Z,98929.88
2022-10-25T06:24:46.046Z,98931.03
2022-10-25T06:27:17.208Z,98940.19
2022-10-25T06:29:55.174Z,98942.25
2022-10-25T06:32:24.596Z,98939.91
2022-10-25T06:34:54.002Z,98937.81
2022-10-25T06:37:24.220Z,98939.03
2022-10-25T06:39:52.997Z,98934.31
2022-10-25T06:42:23.366Z,98933.03
2022-10-25T06:44:52.518Z,98937.91
2022-10-25T06:47:21.748Z,98943.13
2022-10-25T06:50:02.401Z,98934.69
2022-10-25T06:52:33.162Z,98948.19
2022-10-25T06:55:02.378Z,98949.13
2022-10-25T06:57:31.040Z,98946.28
2022-10-25T07:00:11.292Z,98950.16
2022-10-25T07:02:39.970Z,98950.00
2022-10-25T07:05:27.015Z,98957.47
2022-10-25T07:08:01.026Z,98955.50
2022-10-25T07:10:29.748Z,98944.91
2022-10-25T07:12:58.636Z,98948.78
2022-10-25T07:15:30.707Z,98945.94
2022-10-25T07:17:59.444Z,98946.28
2022-10-25T07:20:28.288Z,98950.94
2022-10-25T07:22:59.960Z,98942.13
2022-10-25T07:25:33.060Z,98958.31
2022-10-25T07:28:01.969Z,98955.88
2022-10-25T07:30:32.731Z,98955.63
2022-10-25T07:33:03.594Z,98959.38
2022-10-25T07:35:42.110Z,98961.75
2022-10-25T07:38:24.414Z,98964.75
2022-10-25T07:41:01.015Z,98968.56
2022-10-25T07:43:30.779Z,98957.31
2022-10-25T07:46:00.125Z,98971.31
2022-10-25T07:48:29.232Z,98974.34
2022-10-25T07:50:57.980Z,98971.94
2022-10-25T07:53:26.763Z,98975.69
2022-10-25T07:55:57.026Z,98974.22
2022-10-25T07:58:27.222Z,98969.91
2022-10-25T08:01:04.117Z,98973.63
2022-10-25T08:03:42.575Z,98964.44
2022-10-25T08:06:11.264Z,98975.41
2022-10-25T08:08:40.366Z,98979.78
2022-10-25T08:11:09.400Z,98976.31
2022-10-25T08:13:41.066Z,98985.50
2022-10-25T08:16:10.295Z,98985.25
2022-10-25T08:18:39.404Z,98985.84
2022-10-25T08:21:09.122Z,98987.38
2022-10-25T08:23:38.041Z,98984.97
2022-10-25T08:26:07.293Z,98983.16
2022-10-25T08:28:36.748Z,98982.47
2022-10-25T08:31:07.569Z,98984.72
2022-10-25T08:33:38.372Z,98983.91
2022-10-25T08:36:08.178Z,98983.00
2022-10-25T08:38:37.211Z,98980.50
2022-10-25T08:41:17.616Z,98973.59
2022-10-25T08:44:21.618Z,98992.00
2022-10-25T08:47:00.973Z,98989.81
2022-10-25T08:49:43.787Z,98989.41
2022-10-25T08:52:23.525Z,98993.97
2022-10-25T08:54:52.484Z,98985.44
2022-10-25T08:57:26.058Z,98989.28
2022-10-25T09:00:00.235Z,98989.31
2022-10-25T09:02:44.188Z,99000.63
2022-10-25T09:05:29.090Z,98998.72
2022-10-25T09:08:28.559Z,99002.50
2022-10-25T09:11:12.096Z,99002.25
2022-10-25T09:13:52.828Z,99005.59
2022-10-25T09:16:32.755Z,99010.59
2022-10-25T09:19:09.761Z,99001.44
2022-10-25T09:21:48.177Z,99002.25
2022-10-25T09:24:24.871Z,99008.47
2022-10-25T09:27:10.621Z,99005.47
2022-10-25T09:29:44.064Z,99007.91
2022-10-25T09:32:21.352Z,99010.34
2022-10-25T09:35:17.399Z,99012.81
2022-10-25T09:37:50.977Z,99017.13
2022-10-25T09:40:24.732Z,99024.16
2022-10-25T09:42:59.264Z,99024.41
2022-10-25T09:45:37.355Z,99029.00
2022-10-25T09:48:22.789Z,99028.50
2022-10-25T09:51:00.787Z,99030.34
2022-10-25T09:53:33.584Z,99028.47
2022-10-25T09:56:06.159Z,99029.78
2022-10-25T09:58:39.653Z,99034.81
2022-10-25T10:01:16.883Z,99028.38
2022-10-25T10:03:50.219Z,99034.28
2022-10-25T10:06:33.355Z,99028.84
2022-10-25T10:09:09.045Z,99031.03
2022-10-25T10:11:53.395Z,99032.09
2022-10-25T10:14:56.367Z,99038.81
2022-10-25T10:17:27.554Z,99037.97
2022-10-25T10:20:15.594Z,99034.22
2022-10-25T10:22:55.898Z,99033.13
2022-10-25T10:25:29.845Z,99042.88
2022-10-25T10:28:00.371Z,99048.56
2022-10-25T10:30:32.249Z,99045.63
2022-10-25T10:36:28.404Z,99041.84
2022-10-25T10:39:18.896Z,99044.00
2022-10-25T10:42:02.578Z,99039.16
2022-10-25T10:44:33.731Z,99045.13
2022-10-25T10:47:09.020Z,99044.88
2022-10-25T10:49:40.072Z,99047.81
2022-10-25T10:57:29.331Z,99052.72
2022-10-25T10:59:58.117Z,99045.44
2022-10-25T11:02:40.192Z,99049.19
2022-10-25T11:05:22.337Z,99049.50
2022-10-25T11:07:58.614Z,99044.13
2022-10-25T11:10:33.834Z,99049.25
2022-10-25T11:13:17.390Z,99054.09
2022-10-25T11:16:37.363Z,99042.22
2022-10-25T11:19:41.212Z,99046.25
2022-10-25T11:22:40.732Z,99040.28
2022-10-25T11:25:27.984Z,99049.13
2022-10-25T11:28:22.838Z,99049.66
2022-10-25T11:31:08.083Z,99058.56
2022-10-25T11:33:59.412Z,99051.56
2022-10-25T11:36:49.221Z,99047.50
2022-10-25T11:39:39.191Z,99045.34
2022-10-25T11:42:41.941Z,99048.28
2022-10-25T11:45:43.569Z,99051.50
2022-10-25T11:48:45.931Z,99046.66
2022-10-25T11:51:34.079Z,99052.06
2022-10-25T11:54:31.311Z,99052.06
2022-10-25T11:57:18.499Z,99044.78
2022-10-25T12:00:04.120Z,99038.59
2022-10-25T12:03:18.657Z,99039.06
2022-10-25T12:06:10.191Z,99050.44
2022-10-25T12:08:52.183Z,99040.16
2022-10-25T12:11:30.441Z,99044.97
2022-10-25T12:14:07.649Z,99046.91
2022-10-25T12:16:40.383Z,99047.97
2022-10-25T12:19:44.416Z,99050.41
2022-10-25T12:23:16.158Z,99052.31
2022-10-25T12:25:56.096Z,99046.59
2022-10-25T12:28:33.539Z,99050.91
2022-10-25T12:31:16.849Z,99043.09
2022-10-25T12:33:54.722Z,99060.09
2022-10-25T12:36:33.339Z,99047.69
2022-10-25T12:39:12.482Z,99050.13
2022-10-25T12:41:46.487Z,99061.69
2022-10-25T12:44:55.477Z,99057.94
2022-10-25T12:47:57.802Z,99065.22
2022-10-25T12:50:52.580Z,99050.44
2022-10-25T12:54:11.331Z,99056.66
2022-10-25T12:57:05.218Z,99054.28
2022-10-25T13:00:00.191Z,99052.72
2022-10-25T13:03:28.201Z,99054.91
2022-10-25T13:06:36.400Z,99054.38
2022-10-25T13:09:15.076Z,99048.97
2022-10-25T13:11:51.113Z,99046.81
2022-10-25T13:14:28.787Z,99057.09
2022-10-25T13:18:36.071Z,99052.22
2022-10-25T13:21:09.494Z,99046.53
2022-10-25T13:24:05.112Z,99059.72
2022-10-25T13:27:25.608Z,99054.34
2022-10-25T13:30:06.167Z,99060.78
2022-10-25T13:32:38.327Z,99060.19
2022-10-25T13:36:01.291Z,99065.34
2022-10-25T13:38:38.833Z,99066.97
2022-10-25T13:41:16.476Z,99069.66
2022-10-25T13:44:26.854Z,99064.91
2022-10-25T13:46:57.209Z,99069.22
2022-10-25T13:49:42.318Z,99073.56
2022-10-25T13:52:28.529Z,99072.75
2022-10-25T13:54:59.232Z,99076.50
2022-10-25T13:57:53.840Z,99079.78
2022-10-25T14:00:49.763Z,99076.00
2022-10-25T14:03:53.316Z,99077.31
2022-10-25T14:06:29.581Z,99082.47
2022-10-25T14:09:27.016Z,99079.78
2022-10-25T14:12:16.755Z,99076.25
2022-10-25T14:15:10.994Z,99078.97
2022-10-25T14:17:43.977Z,99075.19
2022-10-25T14:20:27.220Z,99082.50
2022-10-25T14:23:01.830Z,99080.84
2022-10-25T14:25:56.836Z,99080.31
2022-10-25T14:28:32.604Z,99077.34
2022-10-25T14:31:28.695Z,99082.50
2022-10-25T14:34:04.299Z,99083.56
2022-10-25T14:36:57.218Z,99085.19
2022-10-25T14:39:28.589Z,99089.78
2022-10-25T14:42:01.373Z,99082.22
2022-10-25T14:44:32.972Z,99086.00
2022-10-25T14:47:03.693Z,99086.81
2022-10-25T14:49:34.556Z,99082.22
2022-10-25T14:52:10.439Z,99091.66
2022-10-25T14:54:44.248Z,99089.22
2022-10-25T14:57:14.569Z,99091.09
2022-10-25T14:59:52.381Z,99089.50
2022-10-25T15:02:32.296Z,99085.97
2022-10-25T15:05:07.683Z,99083.56
2022-10-25T15:07:46.103Z,99087.84
2022-10-25T15:10:41.157Z,99084.03
2022-10-25T15:13:22.786Z,99089.97
2022-10-25T15:15:55.492Z,99087.19
2022-10-25T15:18:34.394Z,99086.09
2022-10-25T15:21:13.517Z,99089.28
2022-10-25T15:23:45.487Z,99084.69
2022-10-25T15:26:32.771Z,99091.13
2022-10-25T15:29:05.634Z,99078.91
2022-10-25T15:31:35.196Z,99082.66
2022-10-25T15:34:14.411Z,99075.63
2022-10-25T15:36:46.393Z,99084.22
2022-10-25T15:39:28.912Z,99083.06
2022-10-25T15:41:58.406Z,99082.47
2022-10-25T15:45:21.243Z,99086.72
2022-10-25T15:47:51.336Z,99090.13
2022-10-25T15:50:23.097Z,99089.53
2022-10-25T15:52:54.326Z,99090.00
2022-10-25T15:55:25.974Z,99093.41
2022-10-25T15:57:56.319Z,99088.81
2022-10-25T16:00:28.121Z,99094.63
2022-10-25T16:02:59.137Z,99093.97
2022-10-25T16:05:32.321Z,99100.09
2022-10-25T16:12:34.992Z,99104.69
2022-10-25T16:19:34.254Z,99108.09
2022-10-25T16:22:03.762Z,99098.41
2022-10-25T16:24:34.475Z,99105.34
2022-10-25T16:27:30.979Z,99115.69
2022-10-25T16:30:16.447Z,99116.34
2022-10-25T16:33:06.208Z,99117.41
2022-10-25T16:35:36.592Z,99122.81
2022-10-25T16:38:06.944Z,99129.91
2022-10-25T16:40:56.331Z,99130.28
2022-10-25T16:43:34.027Z,99134.84
2022-10-25T16:46:04.702Z,99139.13
2022-10-25T16:49:01.102Z,99139.34
2022-10-25T16:51:31.267Z,99135.47
2022-10-25T16:54:07.093Z,99143.34
2022-10-25T16:56:43.612Z,99150.69
2022-10-25T16:59:13.325Z,99160.88
2022-10-25T17:01:45.307Z,99155.44
2022-10-25T17:04:17.723Z,99159.09
2022-10-25T17:06:47.005Z,99152.25
2022-10-25T17:09:16.674Z,99162.75
2022-10-25T17:11:48.049Z,99158.81
2022-10-25T17:14:17.433Z,99161.91
2022-10-25T17:16:47.588Z,99169.97
2022-10-25T17:19:19.176Z,99172.56
2022-10-25T17:21:48.301Z,99175.09
2022-10-25T17:24:17.381Z,99177.66
2022-10-25T17:41:36.851Z,99188.63
2022-10-25T17:44:06.036Z,99182.25
2022-10-25T17:46:34.909Z,99183.00
2022-10-25T17:49:06.057Z,99177.84
2022-10-25T17:51:38.468Z,99185.81
2022-10-25T17:54:12.206Z,99187.91
2022-10-25T17:56:42.304Z,99186.19
2022-10-25T17:59:12.739Z,99190.44
2022-10-25T18:01:42.247Z,99191.00
2022-10-25T18:04:11.307Z,99184.97
2022-10-25T18:06:40.673Z,99181.94
2022-10-25T18:09:11.141Z,99184.75
2022-10-25T18:11:41.504Z,99175.06
2022-10-25T18:14:12.515Z,99184.50
2022-10-25T18:16:42.888Z,99186.38
2022-10-25T18:19:16.435Z,99191.06
2022-10-25T18:21:45.940Z,99188.88
2022-10-25T18:24:15.594Z,99190.50
2022-10-25T18:26:46.970Z,99190.50
2022-10-25T18:29:17.054Z,99190.66
2022-10-25T18:31:45.956Z,99191.31
2022-10-25T18:34:15.008Z,99189.09
2022-10-25T18:36:45.864Z,99189.84
2022-10-25T18:39:14.696Z,99188.06
2022-10-25T18:41:46.108Z,99186.31
2022-10-25T18:44:15.482Z,99178.25
2022-10-25T18:46:44.789Z,99183.75
2022-10-25T18:49:15.479Z,99178.19
2022-10-25T18:51:44.459Z,99186.31
2022-10-25T18:54:14.263Z,99188.06
2022-10-25T18:56:45.250Z,99180.59
2022-10-25T18:59:14.881Z,99187.47
2022-10-25T19:01:49.564Z,99182.38
2022-10-25T19:04:19.402Z,99180.63
2022-10-25T19:06:55.682Z,99184.97
2022-10-25T19:09:26.789Z,99180.91
2022-10-25T19:12:00.557Z,99177.72
2022-10-25T19:14:44.014Z,99177.28
2022-10-25T19:17:14.103Z,99183.34
2022-10-25T19:19:43.140Z,99174.34
2022-10-25T19:22:12.331Z,99174.09
2022-10-25T19:24:42.633Z,99179.00
2022-10-25T19:27:17.354Z,99183.19
2022-10-25T19:29:46.195Z,99182.16
2022-10-25T19:32:15.135Z,99181.22
2022-10-25T19:34:52.631Z,99179.03
2022-10-25T19:37:21.657Z,99184.75
2022-10-25T19:39:51.726Z,99171.94
2022-10-25T19:42:22.676Z,99167.13
2022-10-25T19:44:54.117Z,99180.09
2022-10-25T19:47:23.012Z,99176.59
2022-10-25T19:49:55.066Z,99180.66
2022-10-25T19:52:25.081Z,99192.88
2022-10-25T19:56:15.698Z,99197.81
2022-10-25T19:58:46.079Z,99194.88
2022-10-25T20:01:21.920Z,99189.19
2022-10-25T20:03:57.503Z,99190.69
2022-10-25T20:06:29.220Z,99194.41
2022-10-25T20:09:00.640Z,99197.31
2022-10-25T20:11:31.739Z,99190.91
2022-10-25T20:14:03.880Z,99199.41
2022-10-25T20:17:56.976Z,99196.16
2022-10-25T20:20:25.578Z,99196.38
2022-10-25T20:22:54.229Z,99195.19
2022-10-25T20:25:23.025Z,99188.22
2022-10-25T20:27:52.092Z,99179.50
2022-10-25T20:30:22.135Z,99178.44
2022-10-25T20:32:51.150Z,99189.94
2022-10-25T20:35:27.430Z,99192.50
2022-10-25T20:37:56.348Z,99201.03
2022-10-25T20:40:25.239Z,99199.75
2022-10-25T20:42:53.857Z,99207.78
2022-10-25T20:45:23.902Z,99202.16
2022-10-25T20:47:55.950Z,99207.88
2022-10-25T20:50:29.326Z,99212.03
2022-10-25T20:53:09.787Z,99209.69
2022-10-25T20:55:39.930Z,99209.56
2022-10-25T20:58:09.561Z,99211.88
2022-10-25T21:00:40.763Z,99211.88
2022-10-25T21:03:12.852Z,99216.28
2022-10-25T21:05:45.248Z,99217.41
2022-10-25T21:08:15.973Z,99217.47
2022-10-25T21:10:45.497Z,99216.72
2022-10-25T21:13:14.148Z,99223.72
2022-10-25T21:15:46.694Z,99223.28
2022-10-25T21:18:16.386Z,99225.09
2022-10-25T21:20:45.179Z,99221.78
2022-10-25T21:23:14.314Z,99218.53
2022-10-25T21:25:43.016Z,99215.19
2022-10-25T21:28:11.842Z,99212.28
2022-10-25T21:30:40.641Z,99220.31
2022-10-25T21:33:10.880Z,99215.69
2022-10-25T21:35:39.600Z,99214.72
2022-10-25T21:38:08.292Z,99216.31
2022-10-25T21:40:37.027Z,99216.22
2022-10-25T21:43:05.712Z,99220.59
2022-10-25T21:45:34.421Z,99220.13
2022-10-25T21:48:03.253Z,99219.09
2022-10-25T21:50:33.350Z,99227.91
2022-10-25T21:53:02.086Z,99223.13
2022-10-25T21:55:30.812Z,99222.16
2022-10-25T21:58:00.011Z,99226.41
2022-10-25T22:00:29.096Z,99226.66
2022-10-25T22:03:00.066Z,99221.22
2022-10-25T22:05:29.730Z,99223.09
2022-10-25T22:08:03.077Z,99222.44
2022-10-25T22:10:32.402Z,99227.47
2022-10-25T22:13:06.465Z,99224.78
2022-10-25T22:15:35.475Z,99227.94
2022-10-25T22:18:04.667Z,99219.75
2022-10-25T22:20:35.542Z,99212.78
2022-10-25T22:23:06.905Z,99221.06
2022-10-25T22:25:39.272Z,99217.81
2022-10-25T22:28:08.022Z,99222.13
2022-10-25T22:30:36.746Z,99217.59
2022-10-25T22:33:05.684Z,99223.47
2022-10-25T22:35:35.362Z,99219.59
2022-10-25T22:38:05.562Z,99221.97
2022-10-25T22:40:38.687Z,99215.44
2022-10-25T22:43:08.061Z,99219.00
2022-10-25T22:45:37.511Z,99213.03
2022-10-25T22:48:06.725Z,99211.41
2022-10-25T22:50:35.419Z,99208.50
2022-10-25T22:53:05.450Z,99215.94
2022-10-25T22:55:41.312Z,99225.81
2022-10-25T22:58:10.244Z,99215.88
2022-10-25T23:00:39.009Z,99217.06
2022-10-25T23:03:07.622Z,99215.44
2022-10-25T23:05:38.234Z,99215.44
2022-10-25T23:08:09.170Z,99220.00
2022-10-25T23:10:40.469Z,99215.41
2022-10-25T23:13:09.510Z,99220.38
2022-10-25T23:15:38.249Z,99225.50
2022-10-25T23:18:07.375Z,99222.22
2022-10-25T23:24:58.873Z,99214.81
2022-10-25T23:27:30.628Z,99213.63
2022-10-25T23:29:59.492Z,99214.50
2022-10-25T23:32:28.856Z,99217.88
2022-10-25T23:34:57.739Z,99218.09
2022-10-25T23:37:26.607Z,99212.16
2022-10-25T23:39:55.343Z,99208.38
2022-10-25T23:42:25.687Z,99211.22
2022-10-25T23:44:54.504Z,99210.34
2022-10-25T23:47:25.437Z,99209.47
2022-10-25T23:49:54.148Z,99219.13
2022-10-25T23:52:22.998Z,99216.34
2022-10-25T23:54:51.782Z,99216.81
2022-10-25T23:57:20.781Z,99211.69
2022-10-25T23:59:51.205Z,99204.50
